createdAt,value
2023-08-27T00:01:19.622Z,98227.85
2023-08-27T00:03:46.778Z,98217.85
2023-08-27T00:06:13.870Z,98221.33
2023-08-27T00:08:40.871Z,98211.77
2023-08-27T00:11:07.846Z,98208.98
2023-08-27T00:13:34.959Z,98201.19
2023-08-27T00:16:02.025Z,98202.20
2023-08-27T00:18:29.171Z,98197.40
2023-08-27T00:20:57.339Z,98193.73
2023-08-27T00:23:24.844Z,98188.91
2023-08-27T00:25:52.050Z,98183.92
2023-08-27T00:28:19.002Z,98180.39
2023-08-27T00:30:46.178Z,98185.73
2023-08-27T00:33:13.258Z,98183.05
2023-08-27T00:35:40.332Z,98182.01
2023-08-27T00:38:07.584Z,98189.62
2023-08-27T00:40:35.695Z,98184.77
2023-08-27T00:43:03.767Z,98182.99
2023-08-27T00:45:31.525Z,98182.20
2023-08-27T00:47:58.757Z,98179.76
2023-08-27T00:50:26.866Z,98175.05
2023-08-27T00:52:54.477Z,98175.44
2023-08-27T00:55:21.511Z,98174.98
2023-08-27T00:57:48.513Z,98177.13
2023-08-27T01:00:15.761Z,98179.41
2023-08-27T01:02:43.976Z,98186.94
2023-08-27T01:05:13.449Z,98184.48
2023-08-27T01:08:21.821Z,98173.83
2023-08-27T01:11:06.494Z,98171.03
2023-08-27T01:13:48.867Z,98168.77
2023-08-27T01:16:15.936Z,98166.51
2023-08-27T01:18:42.988Z,98164.20
2023-08-27T01:21:20.202Z,98168.91
2023-08-27T01:23:47.250Z,98163.83
2023-08-27T01:26:18.871Z,98165.96
2023-08-27T01:28:47.394Z,98171.04
2023-08-27T01:31:18.610Z,98171.84
2023-08-27T01:33:46.423Z,98170.58
2023-08-27T01:36:13.515Z,98171.46
2023-08-27T01:38:40.901Z,98173.52
2023-08-27T01:41:08.034Z,98179.77
2023-08-27T01:43:35.147Z,98187.59
2023-08-27T01:46:02.140Z,98195.12
2023-08-27T01:48:29.453Z,98208.95
2023-08-27T01:50:56.500Z,98217.79
2023-08-27T01:53:23.573Z,98224.10
2023-08-27T01:55:50.510Z,98228.27
2023-08-27T01:58:17.558Z,98233.63
2023-08-27T02:00:44.712Z,98233.99
2023-08-27T02:03:11.759Z,98231.81
2023-08-27T02:05:38.870Z,98224.78
2023-08-27T02:08:06.186Z,98220.31
2023-08-27T02:10:33.218Z,98216.11
2023-08-27T02:13:00.463Z,98212.33
2023-08-27T02:15:27.652Z,98207.36
2023-08-27T02:17:54.639Z,98205.92
2023-08-27T02:20:21.658Z,98206.98
2023-08-27T02:22:48.763Z,98204.99
2023-08-27T02:25:15.844Z,98205.02
2023-08-27T02:27:42.823Z,98200.15
2023-08-27T02:30:10.515Z,98193.85
2023-08-27T02:32:37.703Z,98184.70
2023-08-27T02:35:05.313Z,98176.74
2023-08-27T02:37:32.372Z,98172.92
2023-08-27T02:39:59.398Z,98168.59
2023-08-27T02:42:26.402Z,98168.34
2023-08-27T02:44:53.491Z,98167.91
2023-08-27T02:47:20.568Z,98173.35
2023-08-27T02:49:47.597Z,98178.65
2023-08-27T02:52:16.019Z,98185.77
2023-08-27T02:54:42.981Z,98188.20
2023-08-27T02:57:10.218Z,98184.41
2023-08-27T02:59:37.309Z,98183.12
2023-08-27T03:02:04.552Z,98185.05
2023-08-27T03:04:31.842Z,98181.98
2023-08-27T03:06:58.908Z,98183.88
2023-08-27T03:09:26.031Z,98182.63
2023-08-27T03:11:52.966Z,98180.80
2023-08-27T03:14:22.385Z,98181.33
2023-08-27T03:16:49.442Z,98181.10
2023-08-27T03:19:16.442Z,98182.40
2023-08-27T03:21:43.543Z,98184.68
2023-08-27T03:24:13.030Z,98185.51
2023-08-27T03:26:40.080Z,98188.13
2023-08-27T03:29:07.150Z,98188.73
2023-08-27T03:31:34.411Z,98189.98
2023-08-27T03:34:01.560Z,98192.00
2023-08-27T03:36:29.534Z,98196.30
2023-08-27T03:38:56.634Z,98196.90
2023-08-27T03:41:23.769Z,98198.48
2023-08-27T03:43:50.827Z,98201.60
2023-08-27T03:46:17.913Z,98210.92
2023-08-27T03:48:44.921Z,98214.12
2023-08-27T03:51:14.208Z,98209.96
2023-08-27T03:53:41.257Z,98209.55
2023-08-27T03:56:08.238Z,98214.16
2023-08-27T03:58:35.392Z,98217.11
2023-08-27T04:01:02.492Z,98221.02
2023-08-27T04:03:30.175Z,98223.62
2023-08-27T04:05:57.520Z,98222.21
2023-08-27T04:08:24.627Z,98217.63
2023-08-27T04:10:57.562Z,98215.43
2023-08-27T04:13:24.681Z,98211.45
2023-08-27T04:16:01.807Z,98213.38
2023-08-27T04:18:30.531Z,98220.65
2023-08-27T04:20:57.473Z,98222.85
2023-08-27T04:23:26.250Z,98221.20
2023-08-27T04:25:53.458Z,98215.01
2023-08-27T04:28:20.524Z,98217.58
2023-08-27T04:30:51.572Z,98208.70
2023-08-27T04:33:18.521Z,98205.55
2023-08-27T04:35:53.851Z,98210.25
2023-08-27T04:38:21.854Z,98211.92
2023-08-27T04:40:53.103Z,98210.27
2023-08-27T04:43:20.658Z,98207.04
2023-08-27T04:45:47.775Z,98195.26
2023-08-27T04:48:16.095Z,98194.81
2023-08-27T04:50:47.188Z,98196.02
2023-08-27T04:53:14.307Z,98193.98
2023-08-27T04:55:41.672Z,98192.77
2023-08-27T04:58:09.838Z,98195.44
2023-08-27T05:00:38.202Z,98188.59
2023-08-27T05:03:05.559Z,98187.97
2023-08-27T05:05:32.673Z,98190.00
2023-08-27T05:08:00.008Z,98187.22
2023-08-27T05:10:27.368Z,98185.63
2023-08-27T05:12:55.412Z,98186.39
2023-08-27T05:15:22.598Z,98186.64
2023-08-27T05:17:50.092Z,98193.90
2023-08-27T05:20:17.230Z,98187.69
2023-08-27T05:22:44.297Z,98184.52
2023-08-27T05:25:11.509Z,98188.45
2023-08-27T05:27:45.191Z,98189.06
2023-08-27T05:30:15.406Z,98194.02
2023-08-27T05:32:44.673Z,98192.50
2023-08-27T05:35:11.999Z,98188.05
2023-08-27T05:37:39.247Z,98194.45
2023-08-27T05:40:07.506Z,98194.09
2023-08-27T05:42:36.035Z,98191.06
2023-08-27T05:45:04.579Z,98189.87
2023-08-27T05:47:32.373Z,98186.96
2023-08-27T05:49:59.901Z,98179.64
2023-08-27T05:52:27.555Z,98177.55
2023-08-27T05:54:55.504Z,98175.38
2023-08-27T05:57:23.239Z,98176.39
2023-08-27T05:59:50.277Z,98176.98
2023-08-27T06:02:18.766Z,98173.73
2023-08-27T06:04:46.089Z,98169.64
2023-08-27T06:07:13.391Z,98161.33
2023-08-27T06:09:40.439Z,98159.11
2023-08-27T06:12:07.996Z,98150.22
2023-08-27T06:14:35.442Z,98152.06
2023-08-27T06:17:02.557Z,98152.30
2023-08-27T06:19:42.951Z,98146.73
2023-08-27T06:22:15.185Z,98143.13
2023-08-27T06:24:42.250Z,98139.51
2023-08-27T06:27:09.449Z,98139.84
2023-08-27T06:29:37.057Z,98137.34
2023-08-27T06:32:04.312Z,98136.43
2023-08-27T06:34:33.962Z,98136.73
2023-08-27T06:37:00.995Z,98131.48
2023-08-27T06:39:28.467Z,98129.13
2023-08-27T06:41:55.529Z,98128.96
2023-08-27T06:44:23.075Z,98132.14
2023-08-27T06:46:54.301Z,98132.88
2023-08-27T06:49:21.328Z,98130.58
2023-08-27T06:51:48.360Z,98128.41
2023-08-27T06:54:15.488Z,98128.05
2023-08-27T06:56:42.531Z,98126.38
2023-08-27T06:59:11.812Z,98124.55
2023-08-27T07:01:40.893Z,98123.55
2023-08-27T07:04:08.319Z,98122.45
2023-08-27T07:06:35.533Z,98118.92
2023-08-27T07:09:02.840Z,98115.48
2023-08-27T07:11:30.162Z,98114.38
2023-08-27T07:13:57.405Z,98110.29
2023-08-27T07:16:24.511Z,98107.41
2023-08-27T07:18:51.814Z,98113.02
2023-08-27T07:21:19.118Z,98115.19
2023-08-27T07:23:46.225Z,98119.98
2023-08-27T07:26:13.334Z,98120.73
2023-08-27T07:28:40.483Z,98121.63
2023-08-27T07:31:07.520Z,98120.37
2023-08-27T07:33:36.097Z,98118.63
2023-08-27T07:36:03.646Z,98118.96
2023-08-27T07:38:30.978Z,98120.46
2023-08-27T07:40:58.031Z,98117.26
2023-08-27T07:43:25.662Z,98119.13
2023-08-27T07:45:52.630Z,98124.14
2023-08-27T07:48:19.837Z,98121.05
2023-08-27T07:50:48.459Z,98120.41
2023-08-27T07:53:15.472Z,98118.27
2023-08-27T07:55:42.475Z,98117.42
2023-08-27T07:58:09.962Z,98114.94
2023-08-27T08:00:38.405Z,98117.03
2023-08-27T08:03:05.903Z,98116.84
2023-08-27T08:05:33.127Z,98118.45
2023-08-27T08:08:00.419Z,98117.95
2023-08-27T08:10:27.660Z,98118.19
2023-08-27T08:12:54.863Z,98115.34
2023-08-27T08:15:22.061Z,98116.40
2023-08-27T08:17:49.337Z,98120.77
2023-08-27T08:20:16.519Z,98121.96
2023-08-27T08:22:43.577Z,98117.96
2023-08-27T08:25:10.543Z,98121.88
2023-08-27T08:27:37.596Z,98123.38
2023-08-27T08:30:05.591Z,98130.71
2023-08-27T08:32:34.486Z,98126.44
2023-08-27T08:35:02.547Z,98126.67
2023-08-27T08:37:29.705Z,98122.97
2023-08-27T08:39:56.781Z,98116.88
2023-08-27T08:42:33.390Z,98112.55
2023-08-27T08:45:14.841Z,98107.42
2023-08-27T08:47:42.008Z,98102.19
2023-08-27T08:50:09.562Z,98102.35
2023-08-27T08:52:40.628Z,98097.98
2023-08-27T08:55:09.034Z,98092.30
2023-08-27T08:57:37.699Z,98089.46
2023-08-27T09:00:05.021Z,98079.13
2023-08-27T09:02:32.297Z,98074.08
2023-08-27T09:04:59.351Z,98069.35
2023-08-27T09:07:26.275Z,98068.61
2023-08-27T09:09:53.339Z,98062.07
2023-08-27T09:13:23.624Z,98060.74
2023-08-27T09:15:50.987Z,98053.50
2023-08-27T09:18:18.350Z,98054.77
2023-08-27T09:20:45.405Z,98052.85
2023-08-27T09:23:13.390Z,98050.01
2023-08-27T09:25:42.762Z,98046.53
2023-08-27T09:28:09.882Z,98043.27
2023-08-27T09:30:36.908Z,98039.34
2023-08-27T09:33:04.951Z,98042.05
2023-08-27T09:35:39.165Z,98046.16
2023-08-27T09:38:06.584Z,98040.17
2023-08-27T09:40:33.692Z,98037.78
2023-08-27T09:43:07.726Z,98035.79
2023-08-27T09:45:35.571Z,98034.28
2023-08-27T09:48:04.136Z,98032.45
2023-08-27T09:50:32.434Z,98033.98
2023-08-27T09:53:11.643Z,98033.46
2023-08-27T09:55:38.677Z,98029.40
2023-08-27T09:58:05.867Z,98029.40
2023-08-27T10:00:33.687Z,98025.20
2023-08-27T10:03:00.745Z,98024.16
2023-08-27T10:05:29.805Z,98022.52
2023-08-27T10:07:59.032Z,98016.72
2023-08-27T10:10:28.062Z,98013.39
2023-08-27T10:12:55.900Z,98011.02
2023-08-27T10:15:24.338Z,98011.49
2023-08-27T10:17:53.387Z,98003.68
2023-08-27T10:20:21.075Z,98003.84
2023-08-27T10:22:48.330Z,98001.83
2023-08-27T10:25:19.002Z,98001.30
2023-08-27T10:27:48.537Z,97996.92
2023-08-27T10:30:17.082Z,97993.17
2023-08-27T10:32:45.803Z,97989.41
2023-08-27T10:35:12.871Z,97989.52
2023-08-27T10:37:44.775Z,97989.66
2023-08-27T10:40:13.543Z,97990.16
2023-08-27T10:42:41.018Z,97989.09
2023-08-27T10:45:13.078Z,97989.27
2023-08-27T10:47:40.686Z,97984.91
2023-08-27T10:50:08.298Z,97980.85
2023-08-27T10:52:51.330Z,97972.74
2023-08-27T10:55:22.376Z,97971.45
2023-08-27T10:57:49.559Z,97972.35
2023-08-27T11:00:16.827Z,97969.61
2023-08-27T11:02:58.906Z,97970.63
2023-08-27T11:05:28.088Z,97967.71
2023-08-27T11:07:59.912Z,97967.06
2023-08-27T11:10:32.266Z,97966.73
2023-08-27T11:12:59.674Z,97961.71
2023-08-27T11:15:33.042Z,97964.79
2023-08-27T11:18:01.502Z,97958.73
2023-08-27T11:20:29.128Z,97958.41
2023-08-27T11:23:03.503Z,97957.06
2023-08-27T11:25:31.550Z,97955.13
2023-08-27T11:28:02.485Z,97954.00
2023-08-27T11:30:31.262Z,97951.95
2023-08-27T11:32:58.684Z,97951.97
2023-08-27T11:35:28.809Z,97949.03
2023-08-27T11:37:56.225Z,97947.77
2023-08-27T11:40:28.228Z,97944.63
2023-08-27T11:42:56.862Z,97945.38
2023-08-27T11:45:36.244Z,97936.83
2023-08-27T11:48:05.117Z,97933.88
2023-08-27T11:50:34.190Z,97934.49
2023-08-27T11:53:02.623Z,97932.20
2023-08-27T11:55:29.958Z,97933.47
2023-08-27T11:57:56.994Z,97927.79
2023-08-27T12:00:24.064Z,97924.50
2023-08-27T12:02:51.247Z,97919.63
2023-08-27T12:05:18.697Z,97914.21
2023-08-27T12:07:45.667Z,97909.23
2023-08-27T12:10:15.003Z,97904.29
2023-08-27T12:12:42.891Z,97900.92
2023-08-27T12:15:10.301Z,97900.73
2023-08-27T12:17:37.841Z,97897.05
2023-08-27T12:20:07.013Z,97894.54
2023-08-27T12:22:44.514Z,97890.67
2023-08-27T12:25:13.331Z,97882.91
2023-08-27T12:27:43.677Z,97886.26
2023-08-27T12:30:14.391Z,97882.00
2023-08-27T12:32:41.616Z,97884.39
2023-08-27T12:35:09.179Z,97889.02
2023-08-27T12:37:36.301Z,97889.15
2023-08-27T12:40:03.883Z,97883.02
2023-08-27T12:42:31.137Z,97883.17
2023-08-27T12:44:58.212Z,97881.60
2023-08-27T12:47:25.219Z,97876.34
2023-08-27T12:49:52.431Z,97878.33
2023-08-27T12:52:20.708Z,97880.27
2023-08-27T12:54:48.442Z,97877.81
2023-08-27T12:57:15.422Z,97875.90
2023-08-27T12:59:42.512Z,97876.02
2023-08-27T13:02:10.714Z,97877.47
2023-08-27T13:04:37.969Z,97878.89
2023-08-27T13:07:04.969Z,97875.00
2023-08-27T13:09:32.145Z,97870.66
2023-08-27T13:11:59.972Z,97865.41
2023-08-27T13:14:26.946Z,97861.45
2023-08-27T13:16:54.013Z,97861.98
2023-08-27T13:19:21.114Z,97861.98
2023-08-27T13:21:48.373Z,97862.89
2023-08-27T13:24:15.480Z,97860.11
2023-08-27T13:26:42.550Z,97859.52
2023-08-27T13:29:09.675Z,97857.25
2023-08-27T13:31:36.816Z,97852.64
2023-08-27T13:34:04.422Z,97847.38
2023-08-27T13:36:31.917Z,97847.84
2023-08-27T13:38:59.902Z,97845.48
2023-08-27T13:41:27.099Z,97847.23
2023-08-27T13:43:54.076Z,97847.54
2023-08-27T13:46:21.684Z,97846.98
2023-08-27T13:48:48.843Z,97847.34
2023-08-27T13:51:16.742Z,97847.61
2023-08-27T13:53:43.898Z,97847.85
2023-08-27T13:56:11.026Z,97847.28
2023-08-27T13:58:39.009Z,97845.03
2023-08-27T14:01:06.979Z,97846.21
2023-08-27T14:03:34.373Z,97843.02
2023-08-27T14:06:01.583Z,97843.20
2023-08-27T14:08:30.152Z,97841.70
2023-08-27T14:10:57.697Z,97842.27
2023-08-27T14:13:24.768Z,97838.30
2023-08-27T14:15:52.104Z,97838.04
2023-08-27T14:18:19.800Z,97832.70
2023-08-27T14:20:47.214Z,97833.34
2023-08-27T14:23:14.318Z,97833.28
2023-08-27T14:25:41.905Z,97836.11
2023-08-27T14:28:08.995Z,97834.33
2023-08-27T14:30:36.551Z,97839.55
2023-08-27T14:33:04.112Z,97835.44
2023-08-27T14:35:31.318Z,97835.76
2023-08-27T14:37:58.357Z,97838.23
2023-08-27T14:40:25.325Z,97837.06
2023-08-27T14:42:52.403Z,97835.64
2023-08-27T14:45:19.399Z,97835.61
2023-08-27T14:47:46.519Z,97838.58
2023-08-27T14:50:18.712Z,97839.06
2023-08-27T14:52:47.126Z,97836.43
2023-08-27T14:55:14.188Z,97833.50
2023-08-27T14:57:41.287Z,97835.16
2023-08-27T15:00:09.801Z,97835.80
2023-08-27T15:02:37.261Z,97837.98
2023-08-27T15:05:04.752Z,97836.89
2023-08-27T15:07:31.875Z,97837.98
2023-08-27T15:09:59.248Z,97837.66
2023-08-27T15:12:26.237Z,97832.38
2023-08-27T15:14:53.285Z,97833.31
2023-08-27T15:17:20.933Z,97835.80
2023-08-27T15:19:48.578Z,97836.08
2023-08-27T15:22:15.701Z,97838.08
2023-08-27T15:24:42.936Z,97834.02
2023-08-27T15:27:09.917Z,97834.91
2023-08-27T15:29:36.884Z,97833.23
2023-08-27T15:32:05.785Z,97835.02
2023-08-27T15:34:32.906Z,97831.33
2023-08-27T15:36:59.908Z,97831.42
2023-08-27T15:39:26.949Z,97828.49
2023-08-27T15:41:54.054Z,97830.15
2023-08-27T15:44:21.141Z,97825.42
2023-08-27T15:46:48.372Z,97826.85
2023-08-27T15:49:15.380Z,97821.20
2023-08-27T15:51:42.340Z,97822.64
2023-08-27T15:54:09.405Z,97822.85
2023-08-27T15:56:36.926Z,97827.95
2023-08-27T15:59:04.083Z,97823.11
2023-08-27T16:01:31.233Z,97828.53
2023-08-27T16:03:58.312Z,97826.25
2023-08-27T16:06:25.573Z,97823.45
2023-08-27T16:08:55.116Z,97824.29
2023-08-27T16:11:23.105Z,97826.64
2023-08-27T16:13:50.205Z,97827.33
2023-08-27T16:16:17.283Z,97826.21
2023-08-27T16:18:44.464Z,97821.91
2023-08-27T16:21:13.447Z,97822.14
2023-08-27T16:23:40.616Z,97824.54
2023-08-27T16:26:07.962Z,97821.69
2023-08-27T16:28:35.035Z,97824.99
2023-08-27T16:31:02.226Z,97824.93
2023-08-27T16:33:29.680Z,97822.39
2023-08-27T16:35:56.689Z,97826.36
2023-08-27T16:38:23.814Z,97827.57
2023-08-27T16:40:50.939Z,97823.17
2023-08-27T16:43:18.014Z,97826.74
2023-08-27T16:45:50.912Z,97824.92
2023-08-27T16:48:18.044Z,97823.70
2023-08-27T16:50:45.128Z,97831.46
2023-08-27T16:53:12.131Z,97828.35
2023-08-27T16:55:39.299Z,97825.63
2023-08-27T16:58:06.864Z,97824.02
2023-08-27T17:00:33.944Z,97823.61
2023-08-27T17:03:01.144Z,97826.75
2023-08-27T17:05:28.400Z,97823.87
2023-08-27T17:07:55.508Z,97826.25
2023-08-27T17:10:22.701Z,97828.70
2023-08-27T17:12:49.762Z,97833.27
2023-08-27T17:15:16.889Z,97837.88
2023-08-27T17:17:44.007Z,97838.68
2023-08-27T17:20:11.441Z,97835.77
2023-08-27T17:22:39.305Z,97833.02
2023-08-27T17:25:07.152Z,97835.28
2023-08-27T17:27:34.504Z,97835.86
2023-08-27T17:30:01.927Z,97834.25
2023-08-27T17:32:28.971Z,97835.07
2023-08-27T17:34:56.000Z,97836.80
2023-08-27T17:37:23.008Z,97839.71
2023-08-27T17:39:51.305Z,97844.63
2023-08-27T17:42:18.416Z,97848.14
2023-08-27T17:44:45.468Z,97855.27
2023-08-27T17:47:13.039Z,97856.02
2023-08-27T17:49:41.796Z,97860.04
2023-08-27T17:52:08.844Z,97867.48
2023-08-27T17:54:35.859Z,97867.13
2023-08-27T17:57:02.960Z,97865.86
2023-08-27T17:59:30.400Z,97870.85
2023-08-27T18:01:57.485Z,97871.88
2023-08-27T18:04:24.877Z,97875.15
2023-08-27T18:06:51.888Z,97879.09
2023-08-27T18:09:19.106Z,97886.46
2023-08-27T18:11:47.311Z,97888.52
2023-08-27T18:14:14.341Z,97886.22
2023-08-27T18:16:41.373Z,97884.81
2023-08-27T18:19:09.733Z,97886.52
2023-08-27T18:21:36.946Z,97885.54
2023-08-27T18:24:04.203Z,97891.08
2023-08-27T18:26:31.291Z,97890.21
2023-08-27T18:28:58.442Z,97893.31
2023-08-27T18:31:25.459Z,97893.80
2023-08-27T18:33:52.545Z,97896.09
2023-08-27T18:36:19.554Z,97895.98
2023-08-27T18:38:46.652Z,97901.16
2023-08-27T18:41:13.710Z,97894.35
2023-08-27T18:43:40.683Z,97895.36
2023-08-27T18:46:07.778Z,97891.07
2023-08-27T18:48:34.906Z,97891.99
2023-08-27T18:51:03.234Z,97896.13
2023-08-27T18:53:30.298Z,97897.45
2023-08-27T18:55:57.367Z,97897.31
2023-08-27T18:58:24.435Z,97899.48
2023-08-27T19:00:53.886Z,97901.23
2023-08-27T19:03:21.165Z,97897.20
2023-08-27T19:05:48.338Z,97899.41
2023-08-27T19:08:15.411Z,97895.45
2023-08-27T19:10:42.480Z,97898.41
2023-08-27T19:13:12.320Z,97895.69
2023-08-27T19:15:39.377Z,97898.77
2023-08-27T19:18:06.555Z,97894.95
2023-08-27T19:20:33.816Z,97895.25
2023-08-27T19:23:00.829Z,97894.73
2023-08-27T19:25:27.994Z,97894.53
2023-08-27T19:27:55.343Z,97895.25
2023-08-27T19:30:22.434Z,97893.35
2023-08-27T19:32:49.773Z,97890.02
2023-08-27T19:35:17.066Z,97888.48
2023-08-27T19:37:44.218Z,97889.77
2023-08-27T19:40:11.845Z,97889.80
2023-08-27T19:42:40.836Z,97888.52
2023-08-27T19:45:09.218Z,97891.64
2023-08-27T19:47:36.404Z,97889.44
2023-08-27T19:50:03.574Z,97889.60
2023-08-27T19:52:30.947Z,97884.90
2023-08-27T19:54:58.111Z,97887.09
2023-08-27T19:57:25.218Z,97890.40
2023-08-27T19:59:54.066Z,97888.95
2023-08-27T20:02:22.395Z,97889.98
2023-08-27T20:04:49.529Z,97885.36
2023-08-27T20:07:16.633Z,97884.79
2023-08-27T20:09:43.682Z,97883.69
2023-08-27T20:12:10.791Z,97883.72
2023-08-27T20:14:37.773Z,97879.36
2023-08-27T20:17:04.819Z,97877.36
2023-08-27T20:19:31.749Z,97879.44
2023-08-27T20:21:58.746Z,97877.96
2023-08-27T20:24:25.761Z,97878.33
2023-08-27T20:26:53.089Z,97880.01
2023-08-27T20:29:20.078Z,97881.42
2023-08-27T20:31:47.136Z,97878.20
2023-08-27T20:34:14.205Z,97877.17
2023-08-27T20:36:41.356Z,97873.48
2023-08-27T20:39:09.737Z,97874.58
2023-08-27T20:41:36.931Z,97873.02
2023-08-27T20:44:04.831Z,97873.35
2023-08-27T20:46:31.925Z,97872.70
2023-08-27T20:48:58.994Z,97872.94
2023-08-27T20:51:25.962Z,97870.91
2023-08-27T20:53:55.032Z,97869.21
2023-08-27T20:56:22.296Z,97869.98
2023-08-27T20:58:49.299Z,97869.54
2023-08-27T21:01:16.355Z,97872.17
2023-08-27T21:03:43.387Z,97870.11
2023-08-27T21:06:10.406Z,97871.40
2023-08-27T21:08:37.424Z,97875.98
2023-08-27T21:11:09.345Z,97873.77
2023-08-27T21:13:37.092Z,97877.58
2023-08-27T21:16:04.380Z,97873.08
2023-08-27T21:18:31.628Z,97875.11
2023-08-27T21:20:58.640Z,97870.98
2023-08-27T21:23:25.788Z,97868.79
2023-08-27T21:25:52.895Z,97872.36
2023-08-27T21:28:21.852Z,97869.45
2023-08-27T21:30:49.331Z,97860.90
2023-08-27T21:33:16.477Z,97858.34
2023-08-27T21:35:43.641Z,97857.49
2023-08-27T21:38:10.794Z,97853.73
2023-08-27T21:40:39.856Z,97854.16
2023-08-27T21:43:10.544Z,97857.60
2023-08-27T21:45:37.822Z,97856.42
2023-08-27T21:48:05.386Z,97856.71
2023-08-27T21:50:32.616Z,97861.56
2023-08-27T21:52:59.802Z,97859.27
2023-08-27T21:55:27.064Z,97860.61
2023-08-27T21:57:56.373Z,97862.95
2023-08-27T22:00:23.779Z,97867.33
2023-08-27T22:02:51.924Z,97869.95
2023-08-27T22:05:19.216Z,97868.42
2023-08-27T22:07:46.259Z,97869.42
2023-08-27T22:10:13.570Z,97869.66
2023-08-27T22:12:40.706Z,97866.05
2023-08-27T22:16:23.670Z,97865.52
2023-08-27T22:18:50.770Z,97873.23
2023-08-27T22:21:17.797Z,97871.26
2023-08-27T22:23:44.812Z,97870.57
2023-08-27T22:26:11.800Z,97867.21
2023-08-27T22:28:38.893Z,97863.61
2023-08-27T22:31:06.112Z,97865.17
2023-08-27T22:33:33.770Z,97862.87
2023-08-27T22:36:00.749Z,97867.01
2023-08-27T22:38:27.771Z,97863.27
2023-08-27T22:40:54.778Z,97863.24
2023-08-27T22:43:21.819Z,97862.19
2023-08-27T22:45:49.562Z,97858.79
2023-08-27T22:48:16.596Z,97856.16
2023-08-27T22:50:43.680Z,97850.96
2023-08-27T22:53:10.723Z,97850.77
2023-08-27T22:55:40.952Z,97850.40
2023-08-27T22:58:08.047Z,97855.13
2023-08-27T23:00:35.129Z,97858.73
2023-08-27T23:03:02.601Z,97861.61
2023-08-27T23:05:30.373Z,97858.04
2023-08-27T23:07:57.401Z,97863.94
2023-08-27T23:10:24.506Z,97868.70
2023-08-27T23:12:51.522Z,97866.42
2023-08-27T23:15:18.489Z,97866.48
2023-08-27T23:17:46.472Z,97870.48
2023-08-27T23:20:13.511Z,97867.78
2023-08-27T23:22:41.507Z,97867.34
2023-08-27T23:25:08.889Z,97868.36
2023-08-27T23:27:36.129Z,97871.61
2023-08-27T23:30:04.275Z,97864.60
2023-08-27T23:32:31.815Z,97868.91
2023-08-27T23:34:58.920Z,97869.12
2023-08-27T23:37:26.726Z,97867.23
2023-08-27T23:39:53.765Z,97872.95
2023-08-27T23:42:20.777Z,97867.91
2023-08-27T23:44:59.332Z,97865.79
2023-08-27T23:47:27.910Z,97863.01
2023-08-27T23:49:54.946Z,97868.63
2023-08-27T23:52:21.940Z,97870.13
2023-08-27T23:54:48.962Z,97867.94
2023-08-27T23:57:15.975Z,97864.35
2023-08-27T23:59:43.049Z,97861.23
